sensor_id;sensor_type;location;lat;lon;timestamp;P1;P2;P0
76101;PMS7003;64830;46.910;6.354;2023-08-30T00:00:39;7.00;7.00;6.00
76101;PMS7003;64830;46.910;6.354;2023-08-30T00:03:05;14.50;11.25;8.25
76101;PMS7003;64830;46.910;6.354;2023-08-30T00:05:31;12.25;11.25;9.00
76101;PMS7003;64830;46.910;6.354;2023-08-30T00:07:57;8.25;8.25;6.00
76101;PMS7003;64830;46.910;6.354;2023-08-30T00:10:22;7.25;7.25;6.00
76101;PMS7003;64830;46.910;6.354;2023-08-30T00:12:48;10.25;8.75;6.25
76101;PMS7003;64830;46.910;6.354;2023-08-30T00:15:13;7.00;7.00;6.00
76101;PMS7003;64830;46.910;6.354;2023-08-30T00:17:39;9.25;7.75;6.25
76101;PMS7003;64830;46.910;6.354;2023-08-30T00:20:04;10.75;10.00;7.00
76101;PMS7003;64830;46.910;6.354;2023-08-30T00:22:31;10.50;9.25;7.00
76101;PMS7003;64830;46.910;6.354;2023-08-30T00:24:57;10.50;10.50;7.50
76101;PMS7003;64830;46.910;6.354;2023-08-30T00:27:22;10.00;8.75;6.50
76101;PMS7003;64830;46.910;6.354;2023-08-30T00:29:48;11.25;10.50;6.25
76101;PMS7003;64830;46.910;6.354;2023-08-30T00:32:14;9.75;9.75;5.75
76101;PMS7003;64830;46.910;6.354;2023-08-30T00:34:40;9.50;8.25;5.25
76101;PMS7003;64830;46.910;6.354;2023-08-30T00:37:05;9.50;9.50;6.50
76101;PMS7003;64830;46.910;6.354;2023-08-30T00:39:31;6.25;6.25;5.00
76101;PMS7003;64830;46.910;6.354;2023-08-30T00:41:56;9.75;9.75;7.00
76101;PMS7003;64830;46.910;6.354;2023-08-30T00:44:22;7.75;6.75;5.00
76101;PMS7003;64830;46.910;6.354;2023-08-30T00:46:47;10.50;10.00;6.75
76101;PMS7003;64830;46.910;6.354;2023-08-30T00:49:13;8.75;8.75;7.25
76101;PMS7003;64830;46.910;6.354;2023-08-30T00:51:39;9.00;9.00;6.75
76101;PMS7003;64830;46.910;6.354;2023-08-30T00:54:04;8.25;7.25;6.25
76101;PMS7003;64830;46.910;6.354;2023-08-30T00:56:32;10.75;9.75;7.00
76101;PMS7003;64830;46.910;6.354;2023-08-30T00:58:58;7.00;7.00;5.50
76101;PMS7003;64830;46.910;6.354;2023-08-30T01:01:24;9.25;9.25;7.25
76101;PMS7003;64830;46.910;6.354;2023-08-30T01:03:51;9.00;9.00;7.00
76101;PMS7003;64830;46.910;6.354;2023-08-30T01:06:16;10.00;10.00;7.00
76101;PMS7003;64830;46.910;6.354;2023-08-30T01:08:42;6.75;6.75;5.75
76101;PMS7003;64830;46.910;6.354;2023-08-30T01:11:14;11.00;10.75;7.00
76101;PMS7003;64830;46.910;6.354;2023-08-30T01:14:04;9.00;8.75;7.25
76101;PMS7003;64830;46.910;6.354;2023-08-30T01:16:35;9.25;6.75;5.50
76101;PMS7003;64830;46.910;6.354;2023-08-30T01:19:02;9.75;9.00;6.50
76101;PMS7003;64830;46.910;6.354;2023-08-30T01:24:26;11.25;11.25;8.00
76101;PMS7003;64830;46.910;6.354;2023-08-30T01:29:28;10.00;9.25;6.00
76101;PMS7003;64830;46.910;6.354;2023-08-30T01:31:56;12.50;9.25;7.25
76101;PMS7003;64830;46.910;6.354;2023-08-30T01:34:22;12.75;10.25;6.25
76101;PMS7003;64830;46.910;6.354;2023-08-30T01:36:48;12.00;9.75;7.75
76101;PMS7003;64830;46.910;6.354;2023-08-30T01:39:14;11.25;10.25;7.00
76101;PMS7003;64830;46.910;6.354;2023-08-30T01:41:41;10.00;10.00;9.00
76101;PMS7003;64830;46.910;6.354;2023-08-30T01:44:07;11.75;11.00;8.00
76101;PMS7003;64830;46.910;6.354;2023-08-30T01:46:33;15.75;11.25;9.00
76101;PMS7003;64830;46.910;6.354;2023-08-30T01:49:01;10.50;8.50;6.00
76101;PMS7003;64830;46.910;6.354;2023-08-30T01:51:27;10.75;9.75;8.00
76101;PMS7003;64830;46.910;6.354;2023-08-30T01:53:53;12.50;12.00;9.00
76101;PMS7003;64830;46.910;6.354;2023-08-30T01:56:20;9.25;8.25;6.50
76101;PMS7003;64830;46.910;6.354;2023-08-30T01:58:46;12.75;11.25;9.75
76101;PMS7003;64830;46.910;6.354;2023-08-30T02:01:11;10.00;10.00;8.00
76101;PMS7003;64830;46.910;6.354;2023-08-30T02:03:37;11.00;10.00;7.75
76101;PMS7003;64830;46.910;6.354;2023-08-30T02:06:04;11.25;10.75;8.00
76101;PMS7003;64830;46.910;6.354;2023-08-30T02:08:41;11.00;10.00;7.50
76101;PMS7003;64830;46.910;6.354;2023-08-30T02:11:17;10.00;10.00;8.25
76101;PMS7003;64830;46.910;6.354;2023-08-30T02:13:47;9.75;9.75;8.00
76101;PMS7003;64830;46.910;6.354;2023-08-30T02:16:14;9.75;9.50;8.00
76101;PMS7003;64830;46.910;6.354;2023-08-30T02:18:41;10.00;10.00;8.75
76101;PMS7003;64830;46.910;6.354;2023-08-30T02:21:07;12.00;10.50;7.25
76101;PMS7003;64830;46.910;6.354;2023-08-30T02:23:33;9.00;9.00;7.75
76101;PMS7003;64830;46.910;6.354;2023-08-30T02:25:58;10.50;10.00;8.00
76101;PMS7003;64830;46.910;6.354;2023-08-30T02:28:24;8.00;8.00;6.25
76101;PMS7003;64830;46.910;6.354;2023-08-30T02:30:52;11.00;9.00;6.50
76101;PMS7003;64830;46.910;6.354;2023-08-30T02:33:18;11.00;9.25;7.25
76101;PMS7003;64830;46.910;6.354;2023-08-30T02:35:43;13.75;12.75;9.25
76101;PMS7003;64830;46.910;6.354;2023-08-30T02:38:09;10.50;10.50;8.00
76101;PMS7003;64830;46.910;6.354;2023-08-30T02:40:34;11.75;11.00;9.50
76101;PMS7003;64830;46.910;6.354;2023-08-30T02:43:00;12.50;12.25;9.75
76101;PMS7003;64830;46.910;6.354;2023-08-30T02:45:25;13.50;12.00;9.00
76101;PMS7003;64830;46.910;6.354;2023-08-30T02:47:54;13.50;12.50;9.75
76101;PMS7003;64830;46.910;6.354;2023-08-30T02:50:21;11.50;10.00;8.00
76101;PMS7003;64830;46.910;6.354;2023-08-30T02:52:47;10.25;9.25;8.25
76101;PMS7003;64830;46.910;6.354;2023-08-30T02:55:13;13.00;11.25;9.50
76101;PMS7003;64830;46.910;6.354;2023-08-30T02:57:38;14.00;12.25;10.75
76101;PMS7003;64830;46.910;6.354;2023-08-30T03:00:04;10.75;9.75;7.50
76101;PMS7003;64830;46.910;6.354;2023-08-30T03:02:31;8.75;8.75;8.00
76101;PMS7003;64830;46.910;6.354;2023-08-30T03:04:58;10.50;9.00;8.00
76101;PMS7003;64830;46.910;6.354;2023-08-30T03:07:24;9.75;9.00;6.50
76101;PMS7003;64830;46.910;6.354;2023-08-30T03:09:53;8.75;8.75;6.00
76101;PMS7003;64830;46.910;6.354;2023-08-30T03:12:19;9.75;9.00;8.00
76101;PMS7003;64830;46.910;6.354;2023-08-30T03:14:44;11.00;9.00;7.75
76101;PMS7003;64830;46.910;6.354;2023-08-30T03:17:10;9.25;9.25;8.00
76101;PMS7003;64830;46.910;6.354;2023-08-30T03:19:35;11.50;11.00;9.25
76101;PMS7003;64830;46.910;6.354;2023-08-30T03:22:01;17.50;10.25;8.25
76101;PMS7003;64830;46.910;6.354;2023-08-30T03:24:26;15.25;13.25;9.00
76101;PMS7003;64830;46.910;6.354;2023-08-30T03:26:51;10.50;10.50;9.00
76101;PMS7003;64830;46.910;6.354;2023-08-30T03:29:17;11.00;10.00;8.00
76101;PMS7003;64830;46.910;6.354;2023-08-30T03:31:42;13.25;11.00;10.00
76101;PMS7003;64830;46.910;6.354;2023-08-30T03:34:11;12.00;12.00;9.00
76101;PMS7003;64830;46.910;6.354;2023-08-30T03:36:36;13.50;12.00;10.00
76101;PMS7003;64830;46.910;6.354;2023-08-30T03:39:02;14.75;11.00;9.25
76101;PMS7003;64830;46.910;6.354;2023-08-30T03:41:28;12.25;10.25;7.00
76101;PMS7003;64830;46.910;6.354;2023-08-30T03:43:54;15.25;11.00;9.00
76101;PMS7003;64830;46.910;6.354;2023-08-30T03:46:19;11.00;11.00;8.75
76101;PMS7003;64830;46.910;6.354;2023-08-30T03:48:44;13.50;11.00;9.00
76101;PMS7003;64830;46.910;6.354;2023-08-30T03:51:10;8.75;5.75;5.25
76101;PMS7003;64830;46.910;6.354;2023-08-30T03:53:35;12.25;10.75;8.50
76101;PMS7003;64830;46.910;6.354;2023-08-30T03:56:01;12.75;12.00;9.00
76101;PMS7003;64830;46.910;6.354;2023-08-30T03:58:28;13.00;11.25;9.00
76101;PMS7003;64830;46.910;6.354;2023-08-30T04:00:53;12.50;10.75;9.00
76101;PMS7003;64830;46.910;6.354;2023-08-30T04:03:19;10.00;10.00;9.00
76101;PMS7003;64830;46.910;6.354;2023-08-30T04:05:44;11.25;10.75;8.75
76101;PMS7003;64830;46.910;6.354;2023-08-30T04:08:10;13.75;12.75;8.25
76101;PMS7003;64830;46.910;6.354;2023-08-30T04:10:39;16.00;11.50;9.00
76101;PMS7003;64830;46.910;6.354;2023-08-30T04:13:05;8.75;8.00;6.00
76101;PMS7003;64830;46.910;6.354;2023-08-30T04:15:32;10.00;9.25;6.25
76101;PMS7003;64830;46.910;6.354;2023-08-30T04:17:59;15.75;14.50;9.75
76101;PMS7003;64830;46.910;6.354;2023-08-30T04:20:24;13.50;13.25;10.00
76101;PMS7003;64830;46.910;6.354;2023-08-30T04:22:49;10.50;8.50;7.00
76101;PMS7003;64830;46.910;6.354;2023-08-30T04:25:15;12.50;11.75;8.50
76101;PMS7003;64830;46.910;6.354;2023-08-30T04:27:41;11.00;11.00;8.25
76101;PMS7003;64830;46.910;6.354;2023-08-30T04:30:06;12.75;12.75;8.50
76101;PMS7003;64830;46.910;6.354;2023-08-30T04:32:32;13.25;12.75;10.50
76101;PMS7003;64830;46.910;6.354;2023-08-30T04:34:57;9.25;9.25;8.00
76101;PMS7003;64830;46.910;6.354;2023-08-30T04:37:23;16.25;15.75;10.00
76101;PMS7003;64830;46.910;6.354;2023-08-30T04:39:48;14.75;10.25;8.25
76101;PMS7003;64830;46.910;6.354;2023-08-30T04:42:14;11.50;11.50;8.75
76101;PMS7003;64830;46.910;6.354;2023-08-30T04:44:40;12.75;12.75;9.00
76101;PMS7003;64830;46.910;6.354;2023-08-30T04:47:05;10.50;10.50;7.75
76101;PMS7003;64830;46.910;6.354;2023-08-30T04:49:31;14.50;14.50;10.00
76101;PMS7003;64830;46.910;6.354;2023-08-30T04:51:56;13.00;12.75;9.00
76101;PMS7003;64830;46.910;6.354;2023-08-30T04:54:21;11.25;11.00;8.00
76101;PMS7003;64830;46.910;6.354;2023-08-30T04:56:47;15.25;13.25;10.00
76101;PMS7003;64830;46.910;6.354;2023-08-30T04:59:12;13.25;10.00;9.00
76101;PMS7003;64830;46.910;6.354;2023-08-30T05:01:38;10.75;8.00;7.75
76101;PMS7003;64830;46.910;6.354;2023-08-30T05:04:07;9.75;9.25;7.75
76101;PMS7003;64830;46.910;6.354;2023-08-30T05:06:32;9.00;9.00;8.00
76101;PMS7003;64830;46.910;6.354;2023-08-30T05:08:58;13.25;11.50;9.00
76101;PMS7003;64830;46.910;6.354;2023-08-30T05:11:23;10.75;10.75;8.50
76101;PMS7003;64830;46.910;6.354;2023-08-30T05:13:49;15.00;14.00;9.50
76101;PMS7003;64830;46.910;6.354;2023-08-30T05:16:14;13.75;11.50;9.00
76101;PMS7003;64830;46.910;6.354;2023-08-30T05:18:40;14.75;12.25;9.50
76101;PMS7003;64830;46.910;6.354;2023-08-30T05:21:05;14.00;13.00;11.25
76101;PMS7003;64830;46.910;6.354;2023-08-30T05:23:30;11.75;9.50;7.75
76101;PMS7003;64830;46.910;6.354;2023-08-30T05:25:56;12.00;12.00;9.25
76101;PMS7003;64830;46.910;6.354;2023-08-30T05:28:22;13.00;11.00;8.00
76101;PMS7003;64830;46.910;6.354;2023-08-30T05:30:47;11.25;10.50;8.75
76101;PMS7003;64830;46.910;6.354;2023-08-30T05:33:13;12.75;10.75;8.00
76101;PMS7003;64830;46.910;6.354;2023-08-30T05:35:38;12.50;12.50;8.25
76101;PMS7003;64830;46.910;6.354;2023-08-30T05:38:04;13.00;10.75;9.25
76101;PMS7003;64830;46.910;6.354;2023-08-30T05:40:29;13.50;12.50;10.00
76101;PMS7003;64830;46.910;6.354;2023-08-30T05:42:55;10.75;10.75;9.00
76101;PMS7003;64830;46.910;6.354;2023-08-30T05:45:20;14.00;11.75;8.00
76101;PMS7003;64830;46.910;6.354;2023-08-30T05:47:46;15.75;11.00;9.00
76101;PMS7003;64830;46.910;6.354;2023-08-30T05:50:11;14.25;11.50;9.00
76101;PMS7003;64830;46.910;6.354;2023-08-30T05:52:37;15.50;14.25;10.75
76101;PMS7003;64830;46.910;6.354;2023-08-30T05:55:06;15.25;11.50;9.50
76101;PMS7003;64830;46.910;6.354;2023-08-30T05:57:35;13.75;12.25;10.00
76101;PMS7003;64830;46.910;6.354;2023-08-30T06:00:03;16.75;16.00;10.75
76101;PMS7003;64830;46.910;6.354;2023-08-30T06:02:30;17.75;17.75;11.50
76101;PMS7003;64830;46.910;6.354;2023-08-30T06:04:55;16.75;15.50;10.50
76101;PMS7003;64830;46.910;6.354;2023-08-30T06:07:20;16.00;15.75;13.00
76101;PMS7003;64830;46.910;6.354;2023-08-30T06:09:46;12.00;12.00;9.50
76101;PMS7003;64830;46.910;6.354;2023-08-30T06:12:11;14.00;11.75;10.25
76101;PMS7003;64830;46.910;6.354;2023-08-30T06:14:37;12.50;12.25;9.25
76101;PMS7003;64830;46.910;6.354;2023-08-30T06:17:02;15.50;14.25;10.00
76101;PMS7003;64830;46.910;6.354;2023-08-30T06:19:28;12.75;11.25;8.75
76101;PMS7003;64830;46.910;6.354;2023-08-30T06:21:53;13.00;12.00;9.75
76101;PMS7003;64830;46.910;6.354;2023-08-30T06:24:18;15.50;13.25;10.00
76101;PMS7003;64830;46.910;6.354;2023-08-30T06:26:44;15.00;14.25;11.00
76101;PMS7003;64830;46.910;6.354;2023-08-30T06:29:09;15.00;14.25;11.00
76101;PMS7003;64830;46.910;6.354;2023-08-30T06:31:34;15.25;14.75;10.75
76101;PMS7003;64830;46.910;6.354;2023-08-30T06:34:00;18.25;16.75;12.25
76101;PMS7003;64830;46.910;6.354;2023-08-30T06:36:25;15.75;14.75;10.25
76101;PMS7003;64830;46.910;6.354;2023-08-30T06:38:51;16.00;14.50;10.50
76101;PMS7003;64830;46.910;6.354;2023-08-30T06:41:16;17.75;14.00;10.00
76101;PMS7003;64830;46.910;6.354;2023-08-30T06:43:41;18.00;18.00;12.00
76101;PMS7003;64830;46.910;6.354;2023-08-30T06:46:07;12.25;12.25;10.00
76101;PMS7003;64830;46.910;6.354;2023-08-30T06:48:32;15.75;15.00;11.00
76101;PMS7003;64830;46.910;6.354;2023-08-30T06:50:58;18.75;15.50;10.00
76101;PMS7003;64830;46.910;6.354;2023-08-30T06:53:24;14.75;13.00;9.50
76101;PMS7003;64830;46.910;6.354;2023-08-30T06:55:59;17.00;15.50;10.25
76101;PMS7003;64830;46.910;6.354;2023-08-30T06:58:25;15.00;15.00;9.75
76101;PMS7003;64830;46.910;6.354;2023-08-30T07:00:51;17.75;14.50;9.25
76101;PMS7003;64830;46.910;6.354;2023-08-30T07:03:17;15.50;14.50;10.00
76101;PMS7003;64830;46.910;6.354;2023-08-30T07:05:43;13.50;13.50;9.75
76101;PMS7003;64830;46.910;6.354;2023-08-30T07:08:08;10.00;10.00;8.75
76101;PMS7003;64830;46.910;6.354;2023-08-30T07:10:34;15.25;11.00;8.25
76101;PMS7003;64830;46.910;6.354;2023-08-30T07:13:00;11.25;11.00;9.25
76101;PMS7003;64830;46.910;6.354;2023-08-30T07:15:25;12.00;11.25;8.00
76101;PMS7003;64830;46.910;6.354;2023-08-30T07:17:51;10.50;8.50;6.25
76101;PMS7003;64830;46.910;6.354;2023-08-30T07:20:16;10.25;10.25;8.00
76101;PMS7003;64830;46.910;6.354;2023-08-30T07:22:42;14.75;13.25;10.00
76101;PMS7003;64830;46.910;6.354;2023-08-30T07:25:07;12.25;11.50;9.75
76101;PMS7003;64830;46.910;6.354;2023-08-30T07:27:35;9.50;9.50;6.00
76101;PMS7003;64830;46.910;6.354;2023-08-30T07:30:00;11.75;11.75;9.75
76101;PMS7003;64830;46.910;6.354;2023-08-30T07:32:26;11.00;11.00;8.25
76101;PMS7003;64830;46.910;6.354;2023-08-30T07:34:52;13.25;11.00;9.00
76101;PMS7003;64830;46.910;6.354;2023-08-30T07:37:18;11.00;11.00;10.00
76101;PMS7003;64830;46.910;6.354;2023-08-30T07:39:45;11.00;10.00;7.25
76101;PMS7003;64830;46.910;6.354;2023-08-30T07:42:11;14.50;10.00;7.25
76101;PMS7003;64830;46.910;6.354;2023-08-30T07:44:36;11.50;9.00;7.00
76101;PMS7003;64830;46.910;6.354;2023-08-30T07:47:01;12.25;11.25;8.75
76101;PMS7003;64830;46.910;6.354;2023-08-30T07:49:28;12.75;11.25;8.75
76101;PMS7003;64830;46.910;6.354;2023-08-30T07:51:53;14.00;12.50;9.00
76101;PMS7003;64830;46.910;6.354;2023-08-30T07:54:18;10.25;10.25;8.25
76101;PMS7003;64830;46.910;6.354;2023-08-30T07:56:44;14.75;12.50;9.50
76101;PMS7003;64830;46.910;6.354;2023-08-30T07:59:09;13.25;11.50;7.25
76101;PMS7003;64830;46.910;6.354;2023-08-30T08:01:35;12.25;11.00;9.00
76101;PMS7003;64830;46.910;6.354;2023-08-30T08:04:00;11.25;10.50;7.00
76101;PMS7003;64830;46.910;6.354;2023-08-30T08:06:25;12.00;10.00;7.50
76101;PMS7003;64830;46.910;6.354;2023-08-30T08:08:51;11.75;10.50;7.50
76101;PMS7003;64830;46.910;6.354;2023-08-30T08:11:16;11.25;11.25;8.25
76101;PMS7003;64830;46.910;6.354;2023-08-30T08:13:42;11.50;11.00;7.00
76101;PMS7003;64830;46.910;6.354;2023-08-30T08:16:07;13.75;13.00;8.75
76101;PMS7003;64830;46.910;6.354;2023-08-30T08:18:33;18.75;15.75;10.50
76101;PMS7003;64830;46.910;6.354;2023-08-30T08:20:58;11.25;11.25;8.00
76101;PMS7003;64830;46.910;6.354;2023-08-30T08:23:24;13.50;11.75;9.00
76101;PMS7003;64830;46.910;6.354;2023-08-30T08:25:49;13.50;12.50;9.00
76101;PMS7003;64830;46.910;6.354;2023-08-30T08:28:14;24.25;20.50;15.00
76101;PMS7003;64830;46.910;6.354;2023-08-30T08:30:42;22.50;20.00;14.75
76101;PMS7003;64830;46.910;6.354;2023-08-30T08:33:10;22.00;20.25;14.00
76101;PMS7003;64830;46.910;6.354;2023-08-30T08:35:35;43.00;36.00;21.25
76101;PMS7003;64830;46.910;6.354;2023-08-30T08:38:00;32.00;27.00;18.50
76101;PMS7003;64830;46.910;6.354;2023-08-30T08:40:26;60.25;48.00;29.75
76101;PMS7003;64830;46.910;6.354;2023-08-30T08:42:52;56.75;45.50;30.00
76101;PMS7003;64830;46.910;6.354;2023-08-30T08:45:18;49.25;41.25;25.25
76101;PMS7003;64830;46.910;6.354;2023-08-30T08:47:45;45.00;37.75;24.00
76101;PMS7003;64830;46.910;6.354;2023-08-30T08:50:11;26.75;23.50;17.25
76101;PMS7003;64830;46.910;6.354;2023-08-30T08:52:36;21.75;20.25;14.25
76101;PMS7003;64830;46.910;6.354;2023-08-30T08:55:02;11.75;11.75;8.00
76101;PMS7003;64830;46.910;6.354;2023-08-30T08:57:28;13.25;9.50;7.00
76101;PMS7003;64830;46.910;6.354;2023-08-30T08:59:56;10.00;9.00;7.00
76101;PMS7003;64830;46.910;6.354;2023-08-30T09:02:22;10.25;10.25;8.25
76101;PMS7003;64830;46.910;6.354;2023-08-30T09:04:48;10.75;10.75;7.50
76101;PMS7003;64830;46.910;6.354;2023-08-30T09:07:14;14.00;13.50;9.50
76101;PMS7003;64830;46.910;6.354;2023-08-30T09:09:41;8.50;8.00;7.00
76101;PMS7003;64830;46.910;6.354;2023-08-30T09:12:06;13.00;10.75;7.25
76101;PMS7003;64830;46.910;6.354;2023-08-30T09:14:32;13.25;12.25;9.00
76101;PMS7003;64830;46.910;6.354;2023-08-30T09:16:58;10.50;9.00;7.50
76101;PMS7003;64830;46.910;6.354;2023-08-30T09:19:25;9.00;9.00;7.25
76101;PMS7003;64830;46.910;6.354;2023-08-30T09:21:54;9.50;8.50;7.50
76101;PMS7003;64830;46.910;6.354;2023-08-30T09:24:20;8.00;8.00;7.00
76101;PMS7003;64830;46.910;6.354;2023-08-30T09:26:47;5.50;5.50;4.25
76101;PMS7003;64830;46.910;6.354;2023-08-30T09:29:15;9.00;8.00;6.75
76101;PMS7003;64830;46.910;6.354;2023-08-30T09:31:42;9.75;9.50;6.00
76101;PMS7003;64830;46.910;6.354;2023-08-30T09:34:08;10.75;10.00;8.00
76101;PMS7003;64830;46.910;6.354;2023-08-30T09:36:41;11.00;10.50;8.00
76101;PMS7003;64830;46.910;6.354;2023-08-30T09:39:11;11.00;10.00;6.75
76101;PMS7003;64830;46.910;6.354;2023-08-30T09:41:41;10.00;9.00;7.00
76101;PMS7003;64830;46.910;6.354;2023-08-30T09:44:11;9.25;8.25;7.00
76101;PMS7003;64830;46.910;6.354;2023-08-30T09:46:46;9.50;9.50;8.00
76101;PMS7003;64830;46.910;6.354;2023-08-30T09:49:15;10.50;10.00;8.25
76101;PMS7003;64830;46.910;6.354;2023-08-30T09:51:42;11.50;11.00;9.00
76101;PMS7003;64830;46.910;6.354;2023-08-30T09:54:21;8.50;7.75;6.75
76101;PMS7003;64830;46.910;6.354;2023-08-30T09:56:50;10.75;10.25;8.00
76101;PMS7003;64830;46.910;6.354;2023-08-30T09:59:18;10.50;10.50;8.00
76101;PMS7003;64830;46.910;6.354;2023-08-30T10:01:44;11.00;10.25;8.00
76101;PMS7003;64830;46.910;6.354;2023-08-30T10:04:13;10.00;10.00;7.75
76101;PMS7003;64830;46.910;6.354;2023-08-30T10:06:40;11.00;11.00;9.25
76101;PMS7003;64830;46.910;6.354;2023-08-30T10:09:06;12.75;11.00;8.00
76101;PMS7003;64830;46.910;6.354;2023-08-30T10:11:33;10.50;10.50;7.75
76101;PMS7003;64830;46.910;6.354;2023-08-30T10:14:01;6.50;6.00;5.50
76101;PMS7003;64830;46.910;6.354;2023-08-30T10:16:29;8.00;8.00;6.25
76101;PMS7003;64830;46.910;6.354;2023-08-30T10:19:05;8.00;8.00;7.25
76101;PMS7003;64830;46.910;6.354;2023-08-30T10:21:34;9.50;9.25;6.50
76101;PMS7003;64830;46.910;6.354;2023-08-30T10:24:01;9.00;9.00;7.00
76101;PMS7003;64830;46.910;6.354;2023-08-30T10:26:28;10.00;9.50;8.00
76101;PMS7003;64830;46.910;6.354;2023-08-30T10:28:55;10.00;8.00;7.00
76101;PMS7003;64830;46.910;6.354;2023-08-30T10:31:23;10.00;8.75;7.00
76101;PMS7003;64830;46.910;6.354;2023-08-30T10:33:49;7.00;7.00;6.00
76101;PMS7003;64830;46.910;6.354;2023-08-30T10:36:21;9.50;9.50;6.75
76101;PMS7003;64830;46.910;6.354;2023-08-30T10:38:51;9.50;9.50;7.00
76101;PMS7003;64830;46.910;6.354;2023-08-30T10:41:21;9.00;8.25;6.75
76101;PMS7003;64830;46.910;6.354;2023-08-30T10:43:49;9.25;8.50;7.25
76101;PMS7003;64830;46.910;6.354;2023-08-30T10:46:30;7.50;7.50;6.25
76101;PMS7003;64830;46.910;6.354;2023-08-30T10:49:11;8.00;8.00;6.75
76101;PMS7003;64830;46.910;6.354;2023-08-30T10:51:39;7.25;7.25;5.25
76101;PMS7003;64830;46.910;6.354;2023-08-30T10:54:15;7.50;7.50;6.50
76101;PMS7003;64830;46.910;6.354;2023-08-30T10:56:48;10.00;8.50;7.50
76101;PMS7003;64830;46.910;6.354;2023-08-30T10:59:19;13.50;11.00;9.00
76101;PMS7003;64830;46.910;6.354;2023-08-30T11:01:45;9.50;8.50;7.50
76101;PMS7003;64830;46.910;6.354;2023-08-30T11:04:16;7.75;7.00;6.00
76101;PMS7003;64830;46.910;6.354;2023-08-30T11:06:43;9.00;9.00;6.25
76101;PMS7003;64830;46.910;6.354;2023-08-30T11:09:09;11.00;11.00;8.00
76101;PMS7003;64830;46.910;6.354;2023-08-30T11:11:38;8.25;8.25;7.25
76101;PMS7003;64830;46.910;6.354;2023-08-30T11:14:06;9.75;8.00;7.00
76101;PMS7003;64830;46.910;6.354;2023-08-30T11:16:33;9.25;8.25;6.25
76101;PMS7003;64830;46.910;6.354;2023-08-30T11:19:03;10.00;8.25;6.50
76101;PMS7003;64830;46.910;6.354;2023-08-30T11:21:32;7.75;7.00;6.00
76101;PMS7003;64830;46.910;6.354;2023-08-30T11:24:00;10.25;10.00;8.00
76101;PMS7003;64830;46.910;6.354;2023-08-30T11:26:26;8.50;7.75;6.00
76101;PMS7003;64830;46.910;6.354;2023-08-30T11:28:51;7.50;7.50;5.25
76101;PMS7003;64830;46.910;6.354;2023-08-30T11:31:24;8.00;7.00;5.00
76101;PMS7003;64830;46.910;6.354;2023-08-30T11:33:55;8.00;8.00;6.00
76101;PMS7003;64830;46.910;6.354;2023-08-30T11:36:22;7.50;7.50;5.00
76101;PMS7003;64830;46.910;6.354;2023-08-30T11:38:49;6.75;6.75;5.50
76101;PMS7003;64830;46.910;6.354;2023-08-30T11:41:15;8.00;7.00;5.50
76101;PMS7003;64830;46.910;6.354;2023-08-30T11:43:40;7.00;7.00;6.25
76101;PMS7003;64830;46.910;6.354;2023-08-30T11:46:06;8.00;8.00;7.00
76101;PMS7003;64830;46.910;6.354;2023-08-30T11:48:31;7.25;7.00;5.75
76101;PMS7003;64830;46.910;6.354;2023-08-30T11:50:58;5.50;5.50;4.00
76101;PMS7003;64830;46.910;6.354;2023-08-30T11:53:24;9.00;8.50;6.00
76101;PMS7003;64830;46.910;6.354;2023-08-30T11:55:50;4.25;4.25;3.00
76101;PMS7003;64830;46.910;6.354;2023-08-30T11:58:19;7.25;7.25;6.00
76101;PMS7003;64830;46.910;6.354;2023-08-30T12:00:45;8.25;8.00;7.00
76101;PMS7003;64830;46.910;6.354;2023-08-30T12:03:14;9.00;8.00;6.00
76101;PMS7003;64830;46.910;6.354;2023-08-30T12:05:46;7.00;7.00;6.00
76101;PMS7003;64830;46.910;6.354;2023-08-30T12:08:28;6.25;6.25;5.00
76101;PMS7003;64830;46.910;6.354;2023-08-30T12:10:55;7.00;6.75;5.50
76101;PMS7003;64830;46.910;6.354;2023-08-30T12:15:52;8.25;6.50;5.25
76101;PMS7003;64830;46.910;6.354;2023-08-30T12:18:22;7.00;7.00;6.00
76101;PMS7003;64830;46.910;6.354;2023-08-30T12:20:57;4.50;3.25;3.00
76101;PMS7003;64830;46.910;6.354;2023-08-30T12:23:25;5.50;5.50;4.50
76101;PMS7003;64830;46.910;6.354;2023-08-30T12:26:05;4.00;4.00;3.25
76101;PMS7003;64830;46.910;6.354;2023-08-30T12:28:34;4.00;4.00;3.50
76101;PMS7003;64830;46.910;6.354;2023-08-30T12:31:03;6.00;6.00;5.00
76101;PMS7003;64830;46.910;6.354;2023-08-30T12:33:32;5.00;4.50;4.00
76101;PMS7003;64830;46.910;6.354;2023-08-30T12:35:58;5.75;5.00;4.00
76101;PMS7003;64830;46.910;6.354;2023-08-30T12:38:24;4.75;4.75;4.50
76101;PMS7003;64830;46.910;6.354;2023-08-30T12:40:51;5.00;5.00;4.00
76101;PMS7003;64830;46.910;6.354;2023-08-30T12:43:17;3.00;3.00;3.00
76101;PMS7003;64830;46.910;6.354;2023-08-30T12:45:43;5.50;5.50;4.50
76101;PMS7003;64830;46.910;6.354;2023-08-30T12:48:13;5.25;5.25;4.25
76101;PMS7003;64830;46.910;6.354;2023-08-30T12:50:40;5.00;4.00;3.50
76101;PMS7003;64830;46.910;6.354;2023-08-30T12:53:07;4.00;4.00;3.75
76101;PMS7003;64830;46.910;6.354;2023-08-30T12:55:33;4.00;4.00;3.75
76101;PMS7003;64830;46.910;6.354;2023-08-30T12:57:59;6.25;5.00;4.50
76101;PMS7003;64830;46.910;6.354;2023-08-30T13:00:25;4.25;4.25;3.00
76101;PMS7003;64830;46.910;6.354;2023-08-30T13:02:50;5.00;4.75;4.00
76101;PMS7003;64830;46.910;6.354;2023-08-30T13:05:16;4.50;4.50;4.25
76101;PMS7003;64830;46.910;6.354;2023-08-30T13:07:42;5.50;5.25;4.25
76101;PMS7003;64830;46.910;6.354;2023-08-30T13:10:07;3.00;3.00;2.50
76101;PMS7003;64830;46.910;6.354;2023-08-30T13:12:33;5.75;4.00;4.00
76101;PMS7003;64830;46.910;6.354;2023-08-30T13:14:59;3.00;3.00;3.00
76101;PMS7003;64830;46.910;6.354;2023-08-30T13:17:24;4.50;4.50;4.00
76101;PMS7003;64830;46.910;6.354;2023-08-30T13:19:50;5.00;5.00;4.00
76101;PMS7003;64830;46.910;6.354;2023-08-30T13:22:16;6.75;6.75;5.00
76101;PMS7003;64830;46.910;6.354;2023-08-30T13:24:41;5.50;5.50;4.50
76101;PMS7003;64830;46.910;6.354;2023-08-30T13:27:07;5.25;4.25;3.75
76101;PMS7003;64830;46.910;6.354;2023-08-30T13:29:32;4.00;4.00;4.00
76101;PMS7003;64830;46.910;6.354;2023-08-30T13:31:57;5.25;5.00;4.00
76101;PMS7003;64830;46.910;6.354;2023-08-30T13:34:23;5.25;4.75;4.00
76101;PMS7003;64830;46.910;6.354;2023-08-30T13:36:48;5.25;5.25;5.00
76101;PMS7003;64830;46.910;6.354;2023-08-30T13:39:14;5.75;5.00;4.00
76101;PMS7003;64830;46.910;6.354;2023-08-30T13:41:40;5.00;5.00;4.00
76101;PMS7003;64830;46.910;6.354;2023-08-30T13:44:05;3.50;3.50;3.25
76101;PMS7003;64830;46.910;6.354;2023-08-30T13:46:31;5.25;4.25;3.25
76101;PMS7003;64830;46.910;6.354;2023-08-30T13:48:56;6.00;5.00;4.00
76101;PMS7003;64830;46.910;6.354;2023-08-30T13:51:22;4.00;4.00;3.75
76101;PMS7003;64830;46.910;6.354;2023-08-30T13:53:51;4.00;4.00;4.00
76101;PMS7003;64830;46.910;6.354;2023-08-30T13:56:17;5.00;4.00;3.25
76101;PMS7003;64830;46.910;6.354;2023-08-30T13:58:44;4.00;4.00;3.00
76101;PMS7003;64830;46.910;6.354;2023-08-30T14:01:09;4.00;4.00;4.00
76101;PMS7003;64830;46.910;6.354;2023-08-30T14:03:35;5.00;4.75;3.50
76101;PMS7003;64830;46.910;6.354;2023-08-30T14:06:00;2.25;2.25;1.75
76101;PMS7003;64830;46.910;6.354;2023-08-30T14:08:26;3.25;3.25;3.00
76101;PMS7003;64830;46.910;6.354;2023-08-30T14:10:51;4.25;4.25;4.00